Terminal Aerodrome Forecast
Issued by NWS

Current Version | Previous Version | Text Only | Print | Product List | Glossary On
Versions: 1 2 3 4 5 6 7 8 9 10 11 12
000
FTUS45 KRIW 201100
TAFWRL
TAF
KWRL 201121Z 2012/2112 VRB06KT P6SM VCSH SCT080 BKN110
     FM201300 VRB05KT P6SM FEW080 SCT110
     FM202300 VRB10KT P6SM VCSH SCT070 BKN100
     FM210700 VRB05KT P6SM FEW080 BKN110=

USA.gov is the U.S. government's official web portal to all federal, state and local government web resources and services.